sensor_id;sensor_type;location;lat;lon;timestamp;P1;durP1;ratioP1;P2;durP2;ratioP2
15480;SDS011;7842;50.904;6.670;2023-03-20T00:00:29;28.55;;;23.00;;
15480;SDS011;7842;50.904;6.670;2023-03-20T00:02:56;27.53;;;21.90;;
15480;SDS011;7842;50.904;6.670;2023-03-20T00:05:23;29.33;;;21.85;;
15480;SDS011;7842;50.904;6.670;2023-03-20T00:07:49;26.88;;;21.40;;
15480;SDS011;7842;50.904;6.670;2023-03-20T00:10:16;28.60;;;21.75;;
15480;SDS011;7842;50.904;6.670;2023-03-20T00:12:42;27.88;;;22.33;;
15480;SDS011;7842;50.904;6.670;2023-03-20T00:15:18;27.80;;;22.10;;
15480;SDS011;7842;50.904;6.670;2023-03-20T00:17:46;27.92;;;21.70;;
15480;SDS011;7842;50.904;6.670;2023-03-20T00:20:14;28.30;;;21.30;;
15480;SDS011;7842;50.904;6.670;2023-03-20T00:22:40;28.80;;;21.77;;
15480;SDS011;7842;50.904;6.670;2023-03-20T00:25:08;30.10;;;22.17;;
15480;SDS011;7842;50.904;6.670;2023-03-20T00:27:39;28.73;;;22.13;;
15480;SDS011;7842;50.904;6.670;2023-03-20T00:30:14;29.20;;;21.97;;
15480;SDS011;7842;50.904;6.670;2023-03-20T00:32:44;28.10;;;21.40;;
15480;SDS011;7842;50.904;6.670;2023-03-20T00:35:16;27.27;;;21.10;;
15480;SDS011;7842;50.904;6.670;2023-03-20T00:37:46;27.60;;;22.10;;
15480;SDS011;7842;50.904;6.670;2023-03-20T00:40:12;29.35;;;22.85;;
15480;SDS011;7842;50.904;6.670;2023-03-20T00:42:38;26.92;;;21.50;;
15480;SDS011;7842;50.904;6.670;2023-03-20T00:45:05;28.77;;;22.92;;
15480;SDS011;7842;50.904;6.670;2023-03-20T00:47:31;29.30;;;22.77;;
15480;SDS011;7842;50.904;6.670;2023-03-20T00:50:00;27.98;;;22.33;;
15480;SDS011;7842;50.904;6.670;2023-03-20T00:52:27;29.10;;;22.92;;
15480;SDS011;7842;50.904;6.670;2023-03-20T00:54:52;28.90;;;22.63;;
15480;SDS011;7842;50.904;6.670;2023-03-20T00:57:20;29.45;;;23.30;;
15480;SDS011;7842;50.904;6.670;2023-03-20T01:00:30;30.42;;;23.23;;
15480;SDS011;7842;50.904;6.670;2023-03-20T01:03:02;31.20;;;23.05;;
15480;SDS011;7842;50.904;6.670;2023-03-20T01:05:51;29.65;;;23.05;;
15480;SDS011;7842;50.904;6.670;2023-03-20T01:08:21;28.30;;;21.88;;
15480;SDS011;7842;50.904;6.670;2023-03-20T01:10:49;29.05;;;22.27;;
15480;SDS011;7842;50.904;6.670;2023-03-20T01:15:45;31.70;;;23.02;;
15480;SDS011;7842;50.904;6.670;2023-03-20T01:18:12;30.98;;;22.70;;
15480;SDS011;7842;50.904;6.670;2023-03-20T01:20:39;28.63;;;22.30;;
15480;SDS011;7842;50.904;6.670;2023-03-20T01:23:05;28.08;;;21.70;;
15480;SDS011;7842;50.904;6.670;2023-03-20T01:25:31;29.00;;;21.90;;
15480;SDS011;7842;50.904;6.670;2023-03-20T01:27:57;28.75;;;22.58;;
15480;SDS011;7842;50.904;6.670;2023-03-20T01:30:24;28.30;;;22.00;;
15480;SDS011;7842;50.904;6.670;2023-03-20T01:32:50;28.33;;;21.20;;
15480;SDS011;7842;50.904;6.670;2023-03-20T01:35:17;28.55;;;21.80;;
15480;SDS011;7842;50.904;6.670;2023-03-20T01:37:45;28.85;;;22.00;;
15480;SDS011;7842;50.904;6.670;2023-03-20T01:42:57;27.10;;;20.10;;
15480;SDS011;7842;50.904;6.670;2023-03-20T01:45:25;25.45;;;19.80;;
15480;SDS011;7842;50.904;6.670;2023-03-20T01:47:53;24.75;;;18.67;;
15480;SDS011;7842;50.904;6.670;2023-03-20T01:50:21;23.65;;;18.40;;
15480;SDS011;7842;50.904;6.670;2023-03-20T01:52:51;24.50;;;18.73;;
15480;SDS011;7842;50.904;6.670;2023-03-20T01:55:18;24.98;;;18.40;;
15480;SDS011;7842;50.904;6.670;2023-03-20T01:57:45;23.77;;;18.08;;
15480;SDS011;7842;50.904;6.670;2023-03-20T02:00:15;23.85;;;17.80;;
15480;SDS011;7842;50.904;6.670;2023-03-20T02:02:42;20.17;;;14.98;;
15480;SDS011;7842;50.904;6.670;2023-03-20T02:05:10;22.25;;;15.43;;
15480;SDS011;7842;50.904;6.670;2023-03-20T02:07:37;20.65;;;15.25;;
15480;SDS011;7842;50.904;6.670;2023-03-20T02:10:05;21.70;;;15.52;;
15480;SDS011;7842;50.904;6.670;2023-03-20T02:12:34;20.95;;;15.63;;
15480;SDS011;7842;50.904;6.670;2023-03-20T02:15:01;22.50;;;16.37;;
15480;SDS011;7842;50.904;6.670;2023-03-20T02:17:27;25.00;;;16.50;;
15480;SDS011;7842;50.904;6.670;2023-03-20T02:19:57;23.00;;;16.70;;
15480;SDS011;7842;50.904;6.670;2023-03-20T02:22:36;24.63;;;17.38;;
15480;SDS011;7842;50.904;6.670;2023-03-20T02:49:24;22.80;;;15.85;;
15480;SDS011;7842;50.904;6.670;2023-03-20T02:52:02;21.83;;;15.10;;
15480;SDS011;7842;50.904;6.670;2023-03-20T02:54:40;21.37;;;15.60;;
15480;SDS011;7842;50.904;6.670;2023-03-20T02:57:16;23.13;;;15.70;;
15480;SDS011;7842;50.904;6.670;2023-03-20T03:02:43;19.85;;;14.60;;
15480;SDS011;7842;50.904;6.670;2023-03-20T03:05:14;20.17;;;15.13;;
15480;SDS011;7842;50.904;6.670;2023-03-20T03:07:41;19.70;;;14.57;;
15480;SDS011;7842;50.904;6.670;2023-03-20T03:10:12;19.55;;;14.45;;
15480;SDS011;7842;50.904;6.670;2023-03-20T03:12:41;20.13;;;14.37;;
15480;SDS011;7842;50.904;6.670;2023-03-20T03:15:22;20.50;;;14.60;;
15480;SDS011;7842;50.904;6.670;2023-03-20T03:18:02;19.63;;;14.27;;
15480;SDS011;7842;50.904;6.670;2023-03-20T03:20:31;19.60;;;13.90;;
15480;SDS011;7842;50.904;6.670;2023-03-20T03:22:57;22.00;;;14.77;;
15480;SDS011;7842;50.904;6.670;2023-03-20T03:25:25;20.45;;;14.43;;
15480;SDS011;7842;50.904;6.670;2023-03-20T03:28:01;20.67;;;14.55;;
15480;SDS011;7842;50.904;6.670;2023-03-20T03:30:41;20.98;;;13.77;;
15480;SDS011;7842;50.904;6.670;2023-03-20T03:35:45;19.67;;;13.88;;
15480;SDS011;7842;50.904;6.670;2023-03-20T03:38:17;18.30;;;13.55;;
15480;SDS011;7842;50.904;6.670;2023-03-20T03:43:54;19.15;;;12.80;;
15480;SDS011;7842;50.904;6.670;2023-03-20T03:48:48;18.37;;;13.20;;
15480;SDS011;7842;50.904;6.670;2023-03-20T03:51:16;18.42;;;12.80;;
15480;SDS011;7842;50.904;6.670;2023-03-20T03:53:45;18.75;;;12.90;;
15480;SDS011;7842;50.904;6.670;2023-03-20T03:56:13;20.50;;;12.80;;
15480;SDS011;7842;50.904;6.670;2023-03-20T03:58:42;19.70;;;13.07;;
15480;SDS011;7842;50.904;6.670;2023-03-20T04:01:10;18.30;;;13.13;;
15480;SDS011;7842;50.904;6.670;2023-03-20T04:03:38;18.50;;;13.30;;
15480;SDS011;7842;50.904;6.670;2023-03-20T04:06:07;18.90;;;13.68;;
15480;SDS011;7842;50.904;6.670;2023-03-20T04:08:38;18.98;;;13.57;;
15480;SDS011;7842;50.904;6.670;2023-03-20T04:11:05;19.25;;;13.05;;
15480;SDS011;7842;50.904;6.670;2023-03-20T04:13:31;18.92;;;13.40;;
15480;SDS011;7842;50.904;6.670;2023-03-20T04:15:57;19.80;;;13.55;;
15480;SDS011;7842;50.904;6.670;2023-03-20T04:18:23;19.48;;;13.68;;
15480;SDS011;7842;50.904;6.670;2023-03-20T04:20:49;19.42;;;13.60;;
15480;SDS011;7842;50.904;6.670;2023-03-20T04:23:16;20.75;;;14.00;;
15480;SDS011;7842;50.904;6.670;2023-03-20T04:25:41;19.48;;;13.05;;
15480;SDS011;7842;50.904;6.670;2023-03-20T04:28:07;20.05;;;13.20;;
15480;SDS011;7842;50.904;6.670;2023-03-20T04:30:33;19.50;;;12.80;;
15480;SDS011;7842;50.904;6.670;2023-03-20T04:32:59;18.73;;;12.95;;
15480;SDS011;7842;50.904;6.670;2023-03-20T04:35:25;18.52;;;12.77;;
15480;SDS011;7842;50.904;6.670;2023-03-20T04:37:53;18.90;;;12.48;;
15480;SDS011;7842;50.904;6.670;2023-03-20T04:40:19;19.30;;;12.85;;
15480;SDS011;7842;50.904;6.670;2023-03-20T04:42:46;18.40;;;12.48;;
15480;SDS011;7842;50.904;6.670;2023-03-20T04:45:12;19.00;;;13.07;;
15480;SDS011;7842;50.904;6.670;2023-03-20T04:47:38;20.30;;;13.65;;
15480;SDS011;7842;50.904;6.670;2023-03-20T04:50:04;20.08;;;12.45;;
15480;SDS011;7842;50.904;6.670;2023-03-20T04:52:31;19.67;;;13.10;;
15480;SDS011;7842;50.904;6.670;2023-03-20T04:54:57;19.23;;;13.20;;
15480;SDS011;7842;50.904;6.670;2023-03-20T04:57:23;20.40;;;13.27;;
15480;SDS011;7842;50.904;6.670;2023-03-20T04:59:49;20.23;;;13.15;;
15480;SDS011;7842;50.904;6.670;2023-03-20T05:02:15;21.45;;;14.05;;
15480;SDS011;7842;50.904;6.670;2023-03-20T05:04:41;20.13;;;13.85;;
15480;SDS011;7842;50.904;6.670;2023-03-20T05:07:07;20.07;;;13.97;;
15480;SDS011;7842;50.904;6.670;2023-03-20T05:09:33;19.40;;;12.88;;
15480;SDS011;7842;50.904;6.670;2023-03-20T05:11:59;19.47;;;13.40;;
15480;SDS011;7842;50.904;6.670;2023-03-20T05:14:25;19.15;;;13.07;;
15480;SDS011;7842;50.904;6.670;2023-03-20T05:16:51;20.13;;;13.70;;
15480;SDS011;7842;50.904;6.670;2023-03-20T05:19:17;19.55;;;13.35;;
15480;SDS011;7842;50.904;6.670;2023-03-20T05:21:43;20.05;;;13.57;;
15480;SDS011;7842;50.904;6.670;2023-03-20T05:24:09;22.13;;;14.18;;
15480;SDS011;7842;50.904;6.670;2023-03-20T05:26:35;18.52;;;13.25;;
15480;SDS011;7842;50.904;6.670;2023-03-20T05:29:01;18.00;;;13.10;;
15480;SDS011;7842;50.904;6.670;2023-03-20T05:31:26;20.40;;;13.67;;
15480;SDS011;7842;50.904;6.670;2023-03-20T05:33:52;18.47;;;13.10;;
15480;SDS011;7842;50.904;6.670;2023-03-20T05:36:18;20.75;;;15.10;;
15480;SDS011;7842;50.904;6.670;2023-03-20T05:38:44;22.55;;;16.13;;
15480;SDS011;7842;50.904;6.670;2023-03-20T05:41:10;23.23;;;15.57;;
15480;SDS011;7842;50.904;6.670;2023-03-20T05:43:36;22.40;;;15.55;;
15480;SDS011;7842;50.904;6.670;2023-03-20T05:46:02;22.35;;;15.05;;
15480;SDS011;7842;50.904;6.670;2023-03-20T05:48:28;23.48;;;15.38;;
15480;SDS011;7842;50.904;6.670;2023-03-20T05:50:54;22.88;;;16.10;;
15480;SDS011;7842;50.904;6.670;2023-03-20T05:53:20;22.70;;;16.40;;
15480;SDS011;7842;50.904;6.670;2023-03-20T05:55:46;24.83;;;17.10;;
15480;SDS011;7842;50.904;6.670;2023-03-20T05:58:12;22.80;;;16.50;;
15480;SDS011;7842;50.904;6.670;2023-03-20T06:00:40;25.83;;;17.70;;
15480;SDS011;7842;50.904;6.670;2023-03-20T06:03:05;26.23;;;17.87;;
15480;SDS011;7842;50.904;6.670;2023-03-20T06:05:34;24.23;;;18.00;;
15480;SDS011;7842;50.904;6.670;2023-03-20T06:08:01;25.27;;;17.70;;
15480;SDS011;7842;50.904;6.670;2023-03-20T06:10:27;29.42;;;18.45;;
15480;SDS011;7842;50.904;6.670;2023-03-20T06:12:54;24.65;;;18.08;;
15480;SDS011;7842;50.904;6.670;2023-03-20T06:15:21;27.07;;;18.73;;
15480;SDS011;7842;50.904;6.670;2023-03-20T06:17:47;26.33;;;18.73;;
15480;SDS011;7842;50.904;6.670;2023-03-20T06:20:12;27.33;;;18.63;;
15480;SDS011;7842;50.904;6.670;2023-03-20T06:22:38;24.67;;;18.25;;
15480;SDS011;7842;50.904;6.670;2023-03-20T06:25:04;28.15;;;18.48;;
15480;SDS011;7842;50.904;6.670;2023-03-20T06:27:31;25.52;;;18.10;;
15480;SDS011;7842;50.904;6.670;2023-03-20T06:29:56;26.00;;;18.30;;
15480;SDS011;7842;50.904;6.670;2023-03-20T06:32:22;26.00;;;18.05;;
15480;SDS011;7842;50.904;6.670;2023-03-20T06:34:48;24.02;;;17.73;;
15480;SDS011;7842;50.904;6.670;2023-03-20T06:37:14;25.63;;;18.20;;
15480;SDS011;7842;50.904;6.670;2023-03-20T06:39:40;24.15;;;17.50;;
15480;SDS011;7842;50.904;6.670;2023-03-20T06:42:06;24.63;;;17.52;;
15480;SDS011;7842;50.904;6.670;2023-03-20T06:44:32;23.17;;;16.27;;
15480;SDS011;7842;50.904;6.670;2023-03-20T06:46:58;21.90;;;16.60;;
15480;SDS011;7842;50.904;6.670;2023-03-20T06:49:24;21.30;;;15.90;;
15480;SDS011;7842;50.904;6.670;2023-03-20T06:51:50;21.60;;;15.27;;
15480;SDS011;7842;50.904;6.670;2023-03-20T06:54:15;22.38;;;15.75;;
15480;SDS011;7842;50.904;6.670;2023-03-20T06:56:41;20.57;;;15.53;;
15480;SDS011;7842;50.904;6.670;2023-03-20T06:59:07;19.58;;;14.40;;
15480;SDS011;7842;50.904;6.670;2023-03-20T07:01:36;19.58;;;14.40;;
15480;SDS011;7842;50.904;6.670;2023-03-20T07:04:02;20.80;;;15.10;;
15480;SDS011;7842;50.904;6.670;2023-03-20T07:06:28;21.17;;;14.90;;
15480;SDS011;7842;50.904;6.670;2023-03-20T07:08:54;21.83;;;15.25;;
15480;SDS011;7842;50.904;6.670;2023-03-20T07:11:20;18.23;;;14.33;;
15480;SDS011;7842;50.904;6.670;2023-03-20T07:13:46;20.65;;;14.63;;
15480;SDS011;7842;50.904;6.670;2023-03-20T07:16:11;19.83;;;14.25;;
15480;SDS011;7842;50.904;6.670;2023-03-20T07:18:37;18.42;;;13.27;;
15480;SDS011;7842;50.904;6.670;2023-03-20T07:21:04;16.95;;;12.85;;
15480;SDS011;7842;50.904;6.670;2023-03-20T07:23:32;18.95;;;13.10;;
15480;SDS011;7842;50.904;6.670;2023-03-20T07:25:58;15.80;;;11.88;;
15480;SDS011;7842;50.904;6.670;2023-03-20T07:28:25;17.35;;;12.50;;
15480;SDS011;7842;50.904;6.670;2023-03-20T07:30:51;14.27;;;10.90;;
15480;SDS011;7842;50.904;6.670;2023-03-20T07:33:17;14.32;;;9.77;;
15480;SDS011;7842;50.904;6.670;2023-03-20T07:35:43;12.70;;;9.27;;
15480;SDS011;7842;50.904;6.670;2023-03-20T07:38:09;12.77;;;8.77;;
15480;SDS011;7842;50.904;6.670;2023-03-20T07:40:35;10.83;;;7.87;;
15480;SDS011;7842;50.904;6.670;2023-03-20T07:43:01;9.95;;;7.47;;
15480;SDS011;7842;50.904;6.670;2023-03-20T07:45:28;9.57;;;7.37;;
15480;SDS011;7842;50.904;6.670;2023-03-20T07:47:54;10.57;;;7.68;;
15480;SDS011;7842;50.904;6.670;2023-03-20T07:50:19;9.20;;;7.20;;
15480;SDS011;7842;50.904;6.670;2023-03-20T07:52:46;8.93;;;7.23;;
15480;SDS011;7842;50.904;6.670;2023-03-20T07:55:12;10.02;;;7.65;;
15480;SDS011;7842;50.904;6.670;2023-03-20T07:57:38;9.93;;;7.00;;
15480;SDS011;7842;50.904;6.670;2023-03-20T08:00:04;9.85;;;7.03;;
15480;SDS011;7842;50.904;6.670;2023-03-20T08:02:31;9.93;;;7.20;;
15480;SDS011;7842;50.904;6.670;2023-03-20T08:04:58;10.30;;;7.20;;
15480;SDS011;7842;50.904;6.670;2023-03-20T08:07:24;10.93;;;7.50;;
15480;SDS011;7842;50.904;6.670;2023-03-20T08:09:50;10.73;;;7.63;;
15480;SDS011;7842;50.904;6.670;2023-03-20T08:12:16;10.95;;;7.53;;
15480;SDS011;7842;50.904;6.670;2023-03-20T08:14:42;11.20;;;7.50;;
15480;SDS011;7842;50.904;6.670;2023-03-20T08:17:08;10.13;;;7.90;;
15480;SDS011;7842;50.904;6.670;2023-03-20T08:19:34;10.60;;;7.57;;
15480;SDS011;7842;50.904;6.670;2023-03-20T08:22:00;11.02;;;7.85;;
15480;SDS011;7842;50.904;6.670;2023-03-20T08:24:26;10.65;;;8.00;;
15480;SDS011;7842;50.904;6.670;2023-03-20T08:26:52;11.60;;;8.40;;
15480;SDS011;7842;50.904;6.670;2023-03-20T08:29:18;11.02;;;8.75;;
15480;SDS011;7842;50.904;6.670;2023-03-20T08:31:45;11.32;;;8.18;;
15480;SDS011;7842;50.904;6.670;2023-03-20T08:34:11;11.07;;;8.47;;
15480;SDS011;7842;50.904;6.670;2023-03-20T08:36:37;13.15;;;9.13;;
15480;SDS011;7842;50.904;6.670;2023-03-20T08:39:06;12.07;;;9.48;;
15480;SDS011;7842;50.904;6.670;2023-03-20T08:41:33;13.75;;;9.52;;
15480;SDS011;7842;50.904;6.670;2023-03-20T08:43:59;16.40;;;11.27;;
15480;SDS011;7842;50.904;6.670;2023-03-20T08:46:25;13.13;;;9.70;;
15480;SDS011;7842;50.904;6.670;2023-03-20T08:48:51;14.07;;;10.57;;
15480;SDS011;7842;50.904;6.670;2023-03-20T08:51:17;14.32;;;10.07;;
15480;SDS011;7842;50.904;6.670;2023-03-20T08:53:43;16.25;;;10.40;;
15480;SDS011;7842;50.904;6.670;2023-03-20T08:56:09;14.65;;;10.32;;
15480;SDS011;7842;50.904;6.670;2023-03-20T08:58:36;15.63;;;10.65;;
15480;SDS011;7842;50.904;6.670;2023-03-20T09:01:02;17.15;;;11.27;;
15480;SDS011;7842;50.904;6.670;2023-03-20T09:03:29;15.40;;;10.50;;
15480;SDS011;7842;50.904;6.670;2023-03-20T09:05:55;16.23;;;10.97;;
15480;SDS011;7842;50.904;6.670;2023-03-20T09:08:21;15.25;;;10.60;;
15480;SDS011;7842;50.904;6.670;2023-03-20T09:10:48;15.40;;;10.82;;
15480;SDS011;7842;50.904;6.670;2023-03-20T09:13:14;14.05;;;10.43;;
15480;SDS011;7842;50.904;6.670;2023-03-20T09:15:41;15.07;;;10.40;;
15480;SDS011;7842;50.904;6.670;2023-03-20T09:18:07;14.73;;;10.47;;
15480;SDS011;7842;50.904;6.670;2023-03-20T09:20:33;15.07;;;10.45;;
15480;SDS011;7842;50.904;6.670;2023-03-20T09:22:59;15.70;;;10.95;;
15480;SDS011;7842;50.904;6.670;2023-03-20T09:25:25;16.67;;;12.48;;
15480;SDS011;7842;50.904;6.670;2023-03-20T09:27:51;18.48;;;13.43;;
15480;SDS011;7842;50.904;6.670;2023-03-20T09:30:19;17.83;;;12.43;;
15480;SDS011;7842;50.904;6.670;2023-03-20T09:32:47;17.80;;;12.20;;
15480;SDS011;7842;50.904;6.670;2023-03-20T09:35:13;16.17;;;11.27;;
15480;SDS011;7842;50.904;6.670;2023-03-20T09:37:40;18.80;;;11.77;;
15480;SDS011;7842;50.904;6.670;2023-03-20T09:40:06;14.83;;;10.93;;
15480;SDS011;7842;50.904;6.670;2023-03-20T09:53:38;12.20;;;7.20;;
15480;SDS011;7842;50.904;6.670;2023-03-20T09:56:05;12.75;;;7.40;;
15480;SDS011;7842;50.904;6.670;2023-03-20T09:58:38;10.48;;;6.95;;
15480;SDS011;7842;50.904;6.670;2023-03-20T10:01:05;11.07;;;6.43;;
15480;SDS011;7842;50.904;6.670;2023-03-20T10:05:59;9.98;;;5.53;;
15480;SDS011;7842;50.904;6.670;2023-03-20T10:08:28;9.80;;;5.85;;
15480;SDS011;7842;50.904;6.670;2023-03-20T10:16:33;8.20;;;5.00;;
15480;SDS011;7842;50.904;6.670;2023-03-20T10:21:48;7.00;;;3.80;;
15480;SDS011;7842;50.904;6.670;2023-03-20T10:26:43;6.20;;;3.47;;
15480;SDS011;7842;50.904;6.670;2023-03-20T10:29:20;5.63;;;3.38;;
15480;SDS011;7842;50.904;6.670;2023-03-20T10:32:11;6.30;;;3.50;;
15480;SDS011;7842;50.904;6.670;2023-03-20T10:42:46;6.28;;;3.25;;
15480;SDS011;7842;50.904;6.670;2023-03-20T10:47:46;7.18;;;3.70;;
15480;SDS011;7842;50.904;6.670;2023-03-20T10:50:15;6.20;;;3.65;;
15480;SDS011;7842;50.904;6.670;2023-03-20T10:52:42;7.10;;;3.70;;
15480;SDS011;7842;50.904;6.670;2023-03-20T10:55:14;7.30;;;4.20;;
15480;SDS011;7842;50.904;6.670;2023-03-20T10:57:43;8.77;;;4.28;;
15480;SDS011;7842;50.904;6.670;2023-03-20T11:00:22;9.38;;;4.40;;
15480;SDS011;7842;50.904;6.670;2023-03-20T11:02:48;6.50;;;3.72;;
15480;SDS011;7842;50.904;6.670;2023-03-20T11:05:31;7.82;;;4.22;;
15480;SDS011;7842;50.904;6.670;2023-03-20T11:07:59;7.57;;;4.30;;
15480;SDS011;7842;50.904;6.670;2023-03-20T11:10:26;9.10;;;4.32;;
15480;SDS011;7842;50.904;6.670;2023-03-20T11:12:52;7.70;;;4.18;;
15480;SDS011;7842;50.904;6.670;2023-03-20T11:17:51;6.67;;;3.60;;
15480;SDS011;7842;50.904;6.670;2023-03-20T11:20:17;6.32;;;3.53;;
15480;SDS011;7842;50.904;6.670;2023-03-20T11:22:43;7.70;;;3.63;;
15480;SDS011;7842;50.904;6.670;2023-03-20T11:25:31;6.15;;;3.65;;
15480;SDS011;7842;50.904;6.670;2023-03-20T11:28:17;6.95;;;3.75;;
15480;SDS011;7842;50.904;6.670;2023-03-20T11:30:43;6.63;;;3.40;;
15480;SDS011;7842;50.904;6.670;2023-03-20T11:33:09;6.90;;;3.43;;
15480;SDS011;7842;50.904;6.670;2023-03-20T11:35:35;7.60;;;3.53;;
15480;SDS011;7842;50.904;6.670;2023-03-20T11:38:11;6.22;;;3.25;;
15480;SDS011;7842;50.904;6.670;2023-03-20T11:40:37;6.53;;;3.00;;
15480;SDS011;7842;50.904;6.670;2023-03-20T11:43:13;6.07;;;3.08;;
15480;SDS011;7842;50.904;6.670;2023-03-20T11:45:43;5.05;;;2.78;;
15480;SDS011;7842;50.904;6.670;2023-03-20T11:48:18;5.65;;;3.20;;
15480;SDS011;7842;50.904;6.670;2023-03-20T11:50:45;6.65;;;3.70;;
15480;SDS011;7842;50.904;6.670;2023-03-20T11:53:25;5.60;;;3.10;;
15480;SDS011;7842;50.904;6.670;2023-03-20T11:56:00;5.72;;;3.28;;
15480;SDS011;7842;50.904;6.670;2023-03-20T11:58:27;6.72;;;3.88;;
15480;SDS011;7842;50.904;6.670;2023-03-20T12:00:54;5.93;;;3.50;;
15480;SDS011;7842;50.904;6.670;2023-03-20T12:03:42;7.53;;;3.45;;
15480;SDS011;7842;50.904;6.670;2023-03-20T12:06:09;5.87;;;2.90;;
15480;SDS011;7842;50.904;6.670;2023-03-20T12:08:38;5.35;;;3.42;;
15480;SDS011;7842;50.904;6.670;2023-03-20T12:13:43;5.65;;;3.22;;
15480;SDS011;7842;50.904;6.670;2023-03-20T12:16:12;7.50;;;3.07;;
15480;SDS011;7842;50.904;6.670;2023-03-20T12:18:43;4.57;;;2.45;;
15480;SDS011;7842;50.904;6.670;2023-03-20T12:21:11;6.95;;;3.10;;
15480;SDS011;7842;50.904;6.670;2023-03-20T12:23:55;6.15;;;3.05;;
15480;SDS011;7842;50.904;6.670;2023-03-20T12:26:31;5.68;;;3.15;;
15480;SDS011;7842;50.904;6.670;2023-03-20T12:29:45;6.55;;;3.40;;
15480;SDS011;7842;50.904;6.670;2023-03-20T12:31:45;4.65;;;3.20;;
15480;SDS011;7842;50.904;6.670;2023-03-20T12:36:49;7.00;;;3.78;;
15480;SDS011;7842;50.904;6.670;2023-03-20T12:39:22;7.55;;;4.40;;
15480;SDS011;7842;50.904;6.670;2023-03-20T12:55:13;6.78;;;3.20;;
15480;SDS011;7842;50.904;6.670;2023-03-20T12:57:48;5.40;;;3.73;;
15480;SDS011;7842;50.904;6.670;2023-03-20T13:00:35;6.40;;;3.17;;
15480;SDS011;7842;50.904;6.670;2023-03-20T13:05:51;6.70;;;3.30;;
15480;SDS011;7842;50.904;6.670;2023-03-20T13:08:33;6.65;;;2.90;;
15480;SDS011;7842;50.904;6.670;2023-03-20T13:11:24;6.53;;;2.97;;
15480;SDS011;7842;50.904;6.670;2023-03-20T13:13:55;7.63;;;2.90;;
15480;SDS011;7842;50.904;6.670;2023-03-20T13:26:44;7.27;;;3.40;;
15480;SDS011;7842;50.904;6.670;2023-03-20T13:29:32;7.23;;;3.03;;
15480;SDS011;7842;50.904;6.670;2023-03-20T13:40:13;8.30;;;3.90;;
15480;SDS011;7842;50.904;6.670;2023-03-20T13:42:46;6.20;;;3.80;;
15480;SDS011;7842;50.904;6.670;2023-03-20T13:47:47;9.73;;;3.83;;
15480;SDS011;7842;50.904;6.670;2023-03-20T13:50:30;9.60;;;3.75;;
15480;SDS011;7842;50.904;6.670;2023-03-20T13:53:00;6.78;;;3.83;;
15480;SDS011;7842;50.904;6.670;2023-03-20T14:00:29;7.07;;;3.10;;
15480;SDS011;7842;50.904;6.670;2023-03-20T14:05:27;7.10;;;3.40;;
15480;SDS011;7842;50.904;6.670;2023-03-20T14:07:56;6.65;;;3.35;;
15480;SDS011;7842;50.904;6.670;2023-03-20T14:12:52;7.95;;;4.20;;
15480;SDS011;7842;50.904;6.670;2023-03-20T14:15:19;6.15;;;3.30;;
15480;SDS011;7842;50.904;6.670;2023-03-20T14:17:46;7.25;;;2.72;;
15480;SDS011;7842;50.904;6.670;2023-03-20T14:20:19;5.87;;;3.10;;
15480;SDS011;7842;50.904;6.670;2023-03-20T14:22:58;7.03;;;3.13;;
15480;SDS011;7842;50.904;6.670;2023-03-20T14:25:25;6.60;;;3.00;;
15480;SDS011;7842;50.904;6.670;2023-03-20T14:33:00;7.90;;;3.20;;
15480;SDS011;7842;50.904;6.670;2023-03-20T14:35:30;9.00;;;3.17;;
15480;SDS011;7842;50.904;6.670;2023-03-20T14:38:03;6.73;;;2.80;;
15480;SDS011;7842;50.904;6.670;2023-03-20T14:40:33;6.68;;;3.20;;
15480;SDS011;7842;50.904;6.670;2023-03-20T14:43:03;8.63;;;3.70;;
15480;SDS011;7842;50.904;6.670;2023-03-20T14:45:34;6.15;;;2.75;;
15480;SDS011;7842;50.904;6.670;2023-03-20T14:50:31;9.40;;;3.92;;
15480;SDS011;7842;50.904;6.670;2023-03-20T14:52:59;6.88;;;3.50;;
15480;SDS011;7842;50.904;6.670;2023-03-20T14:55:29;8.02;;;2.92;;
15480;SDS011;7842;50.904;6.670;2023-03-20T14:57:56;5.47;;;2.72;;
15480;SDS011;7842;50.904;6.670;2023-03-20T15:00:22;6.80;;;3.20;;
15480;SDS011;7842;50.904;6.670;2023-03-20T15:02:50;7.10;;;3.67;;
15480;SDS011;7842;50.904;6.670;2023-03-20T15:05:29;5.43;;;2.73;;
15480;SDS011;7842;50.904;6.670;2023-03-20T15:07:57;5.67;;;2.53;;
15480;SDS011;7842;50.904;6.670;2023-03-20T15:10:27;6.80;;;2.65;;
15480;SDS011;7842;50.904;6.670;2023-03-20T15:12:53;5.90;;;2.80;;
15480;SDS011;7842;50.904;6.670;2023-03-20T15:15:28;5.20;;;2.35;;
15480;SDS011;7842;50.904;6.670;2023-03-20T15:18:01;7.85;;;3.20;;
15480;SDS011;7842;50.904;6.670;2023-03-20T15:20:27;8.18;;;3.25;;
15480;SDS011;7842;50.904;6.670;2023-03-20T15:25:21;7.82;;;3.10;;
15480;SDS011;7842;50.904;6.670;2023-03-20T15:27:47;5.70;;;2.83;;
15480;SDS011;7842;50.904;6.670;2023-03-20T15:30:15;7.13;;;4.53;;
15480;SDS011;7842;50.904;6.670;2023-03-20T15:32:42;7.03;;;3.70;;
15480;SDS011;7842;50.904;6.670;2023-03-20T15:35:10;5.95;;;3.20;;
15480;SDS011;7842;50.904;6.670;2023-03-20T15:37:36;6.70;;;3.00;;
15480;SDS011;7842;50.904;6.670;2023-03-20T15:40:09;6.50;;;2.95;;
15480;SDS011;7842;50.904;6.670;2023-03-20T15:42:35;5.57;;;2.58;;
15480;SDS011;7842;50.904;6.670;2023-03-20T15:45:01;6.93;;;2.92;;
15480;SDS011;7842;50.904;6.670;2023-03-20T15:47:27;6.37;;;3.10;;
15480;SDS011;7842;50.904;6.670;2023-03-20T15:49:55;6.95;;;4.13;;
15480;SDS011;7842;50.904;6.670;2023-03-20T15:54:54;6.10;;;4.00;;
15480;SDS011;7842;50.904;6.670;2023-03-20T15:57:25;5.55;;;3.15;;
15480;SDS011;7842;50.904;6.670;2023-03-20T15:59:54;6.53;;;3.47;;
15480;SDS011;7842;50.904;6.670;2023-03-20T16:02:20;6.95;;;3.75;;
15480;SDS011;7842;50.904;6.670;2023-03-20T16:04:47;5.68;;;3.30;;
15480;SDS011;7842;50.904;6.670;2023-03-20T16:07:19;8.82;;;3.60;;
15480;SDS011;7842;50.904;6.670;2023-03-20T16:09:45;6.13;;;3.20;;
15480;SDS011;7842;50.904;6.670;2023-03-20T16:12:14;7.55;;;4.13;;
15480;SDS011;7842;50.904;6.670;2023-03-20T16:14:41;7.07;;;3.92;;
15480;SDS011;7842;50.904;6.670;2023-03-20T16:17:09;7.15;;;3.50;;
15480;SDS011;7842;50.904;6.670;2023-03-20T16:19:36;8.20;;;3.88;;
15480;SDS011;7842;50.904;6.670;2023-03-20T16:22:15;7.00;;;3.70;;
15480;SDS011;7842;50.904;6.670;2023-03-20T16:24:43;6.25;;;3.40;;
15480;SDS011;7842;50.904;6.670;2023-03-20T16:27:11;7.80;;;3.58;;
15480;SDS011;7842;50.904;6.670;2023-03-20T16:29:41;8.90;;;4.10;;
15480;SDS011;7842;50.904;6.670;2023-03-20T16:34:57;8.73;;;4.75;;
15480;SDS011;7842;50.904;6.670;2023-03-20T16:40:01;5.38;;;3.22;;
15480;SDS011;7842;50.904;6.670;2023-03-20T16:42:28;6.70;;;3.40;;
15480;SDS011;7842;50.904;6.670;2023-03-20T16:44:55;6.50;;;3.37;;
15480;SDS011;7842;50.904;6.670;2023-03-20T16:47:34;6.95;;;3.20;;
15480;SDS011;7842;50.904;6.670;2023-03-20T16:50:17;6.40;;;3.05;;
15480;SDS011;7842;50.904;6.670;2023-03-20T16:52:45;6.78;;;3.10;;
15480;SDS011;7842;50.904;6.670;2023-03-20T16:55:46;6.93;;;2.85;;
15480;SDS011;7842;50.904;6.670;2023-03-20T16:58:07;5.90;;;3.17;;
15480;SDS011;7842;50.904;6.670;2023-03-20T17:00:41;5.80;;;3.35;;
15480;SDS011;7842;50.904;6.670;2023-03-20T17:03:12;7.18;;;3.30;;
15480;SDS011;7842;50.904;6.670;2023-03-20T17:05:44;6.13;;;3.30;;
15480;SDS011;7842;50.904;6.670;2023-03-20T17:08:13;7.23;;;3.10;;
15480;SDS011;7842;50.904;6.670;2023-03-20T17:10:41;9.57;;;3.47;;
15480;SDS011;7842;50.904;6.670;2023-03-20T17:13:08;5.33;;;2.80;;
15480;SDS011;7842;50.904;6.670;2023-03-20T17:15:34;6.53;;;3.00;;
15480;SDS011;7842;50.904;6.670;2023-03-20T17:18:00;6.45;;;3.05;;
15480;SDS011;7842;50.904;6.670;2023-03-20T17:20:28;5.57;;;3.25;;
15480;SDS011;7842;50.904;6.670;2023-03-20T17:22:55;5.90;;;3.50;;